sensor_id;sensor_type;location;lat;lon;timestamp;P1;durP1;ratioP1;P2;durP2;ratioP2
9773;SDS011;4926;42.670;23.316;2023-12-14T00:01:18;16.83;;;12.82;;
9773;SDS011;4926;42.670;23.316;2023-12-14T00:03:45;20.75;;;12.88;;
9773;SDS011;4926;42.670;23.316;2023-12-14T00:06:12;17.63;;;12.93;;
9773;SDS011;4926;42.670;23.316;2023-12-14T00:08:39;17.20;;;11.63;;
9773;SDS011;4926;42.670;23.316;2023-12-14T00:11:06;17.77;;;12.63;;
9773;SDS011;4926;42.670;23.316;2023-12-14T00:13:36;19.30;;;13.05;;
9773;SDS011;4926;42.670;23.316;2023-12-14T00:16:08;14.18;;;11.00;;
9773;SDS011;4926;42.670;23.316;2023-12-14T00:18:35;19.10;;;11.93;;
9773;SDS011;4926;42.670;23.316;2023-12-14T00:21:03;16.73;;;11.60;;
9773;SDS011;4926;42.670;23.316;2023-12-14T00:23:30;18.10;;;11.70;;
9773;SDS011;4926;42.670;23.316;2023-12-14T00:25:57;20.73;;;13.80;;
9773;SDS011;4926;42.670;23.316;2023-12-14T00:28:27;16.33;;;12.35;;
9773;SDS011;4926;42.670;23.316;2023-12-14T00:30:55;17.75;;;12.77;;
9773;SDS011;4926;42.670;23.316;2023-12-14T00:33:22;18.80;;;12.70;;
9773;SDS011;4926;42.670;23.316;2023-12-14T00:35:49;16.33;;;12.70;;
9773;SDS011;4926;42.670;23.316;2023-12-14T00:38:17;18.77;;;13.05;;
9773;SDS011;4926;42.670;23.316;2023-12-14T00:40:44;16.50;;;12.65;;
9773;SDS011;4926;42.670;23.316;2023-12-14T00:43:11;17.80;;;12.45;;
9773;SDS011;4926;42.670;23.316;2023-12-14T00:45:38;15.35;;;12.05;;
9773;SDS011;4926;42.670;23.316;2023-12-14T00:48:07;17.30;;;12.15;;
9773;SDS011;4926;42.670;23.316;2023-12-14T00:50:38;15.75;;;12.25;;
9773;SDS011;4926;42.670;23.316;2023-12-14T00:53:07;18.92;;;13.07;;
9773;SDS011;4926;42.670;23.316;2023-12-14T00:55:34;20.27;;;12.48;;
9773;SDS011;4926;42.670;23.316;2023-12-14T00:58:04;15.95;;;12.05;;
9773;SDS011;4926;42.670;23.316;2023-12-14T01:00:31;17.55;;;12.75;;
9773;SDS011;4926;42.670;23.316;2023-12-14T01:02:57;16.27;;;12.02;;
9773;SDS011;4926;42.670;23.316;2023-12-14T01:05:26;17.60;;;13.05;;
9773;SDS011;4926;42.670;23.316;2023-12-14T01:07:55;21.02;;;13.68;;
9773;SDS011;4926;42.670;23.316;2023-12-14T01:10:22;20.27;;;13.45;;
9773;SDS011;4926;42.670;23.316;2023-12-14T01:12:49;21.17;;;14.05;;
9773;SDS011;4926;42.670;23.316;2023-12-14T01:15:16;23.48;;;13.82;;
9773;SDS011;4926;42.670;23.316;2023-12-14T01:17:43;18.35;;;14.25;;
9773;SDS011;4926;42.670;23.316;2023-12-14T01:20:12;18.88;;;13.88;;
9773;SDS011;4926;42.670;23.316;2023-12-14T01:22:41;19.23;;;14.05;;
9773;SDS011;4926;42.670;23.316;2023-12-14T01:25:08;18.63;;;14.20;;
9773;SDS011;4926;42.670;23.316;2023-12-14T01:27:36;22.35;;;14.88;;
9773;SDS011;4926;42.670;23.316;2023-12-14T01:30:06;19.70;;;13.95;;
9773;SDS011;4926;42.670;23.316;2023-12-14T01:32:34;21.08;;;14.32;;
9773;SDS011;4926;42.670;23.316;2023-12-14T01:35:01;18.65;;;12.77;;
9773;SDS011;4926;42.670;23.316;2023-12-14T01:37:28;20.45;;;15.23;;
9773;SDS011;4926;42.670;23.316;2023-12-14T01:39:59;22.77;;;14.85;;
9773;SDS011;4926;42.670;23.316;2023-12-14T01:42:26;21.10;;;15.27;;
9773;SDS011;4926;42.670;23.316;2023-12-14T01:44:53;22.13;;;14.45;;
9773;SDS011;4926;42.670;23.316;2023-12-14T01:47:22;21.17;;;14.73;;
9773;SDS011;4926;42.670;23.316;2023-12-14T01:49:49;21.05;;;14.98;;
9773;SDS011;4926;42.670;23.316;2023-12-14T01:52:15;20.08;;;14.02;;
9773;SDS011;4926;42.670;23.316;2023-12-14T01:54:44;22.75;;;14.73;;
9773;SDS011;4926;42.670;23.316;2023-12-14T01:57:15;23.38;;;14.63;;
9773;SDS011;4926;42.670;23.316;2023-12-14T01:59:42;19.88;;;14.85;;
9773;SDS011;4926;42.670;23.316;2023-12-14T02:02:11;22.50;;;15.35;;
9773;SDS011;4926;42.670;23.316;2023-12-14T02:04:39;21.00;;;14.18;;
9773;SDS011;4926;42.670;23.316;2023-12-14T02:07:06;19.88;;;14.65;;
9773;SDS011;4926;42.670;23.316;2023-12-14T02:09:33;18.85;;;13.50;;
9773;SDS011;4926;42.670;23.316;2023-12-14T02:12:00;18.35;;;13.82;;
9773;SDS011;4926;42.670;23.316;2023-12-14T02:14:29;18.27;;;12.18;;
9773;SDS011;4926;42.670;23.316;2023-12-14T02:16:56;17.90;;;13.45;;
9773;SDS011;4926;42.670;23.316;2023-12-14T02:19:24;22.23;;;12.25;;
9773;SDS011;4926;42.670;23.316;2023-12-14T02:21:51;19.47;;;12.83;;
9773;SDS011;4926;42.670;23.316;2023-12-14T02:24:23;16.40;;;12.57;;
9773;SDS011;4926;42.670;23.316;2023-12-14T02:26:51;17.38;;;12.68;;
9773;SDS011;4926;42.670;23.316;2023-12-14T02:29:17;18.42;;;12.13;;
9773;SDS011;4926;42.670;23.316;2023-12-14T02:31:45;16.25;;;12.02;;
9773;SDS011;4926;42.670;23.316;2023-12-14T02:34:13;18.20;;;11.65;;
9773;SDS011;4926;42.670;23.316;2023-12-14T02:36:40;16.02;;;10.43;;
9773;SDS011;4926;42.670;23.316;2023-12-14T02:39:07;16.70;;;11.27;;
9773;SDS011;4926;42.670;23.316;2023-12-14T02:41:40;18.95;;;12.23;;
9773;SDS011;4926;42.670;23.316;2023-12-14T02:44:12;15.82;;;11.90;;
9773;SDS011;4926;42.670;23.316;2023-12-14T02:46:39;16.17;;;11.68;;
9773;SDS011;4926;42.670;23.316;2023-12-14T02:49:06;16.33;;;11.38;;
9773;SDS011;4926;42.670;23.316;2023-12-14T02:51:33;14.02;;;10.43;;
9773;SDS011;4926;42.670;23.316;2023-12-14T02:54:00;15.75;;;10.43;;
9773;SDS011;4926;42.670;23.316;2023-12-14T02:56:31;14.45;;;10.40;;
9773;SDS011;4926;42.670;23.316;2023-12-14T02:58:59;11.80;;;9.77;;
9773;SDS011;4926;42.670;23.316;2023-12-14T03:01:32;12.57;;;9.68;;
9773;SDS011;4926;42.670;23.316;2023-12-14T03:04:02;13.75;;;9.50;;
9773;SDS011;4926;42.670;23.316;2023-12-14T03:06:29;14.07;;;9.25;;
9773;SDS011;4926;42.670;23.316;2023-12-14T03:08:56;11.10;;;8.75;;
9773;SDS011;4926;42.670;23.316;2023-12-14T03:11:23;14.15;;;9.10;;
9773;SDS011;4926;42.670;23.316;2023-12-14T03:13:50;12.90;;;8.65;;
9773;SDS011;4926;42.670;23.316;2023-12-14T03:16:19;11.20;;;8.05;;
9773;SDS011;4926;42.670;23.316;2023-12-14T03:18:46;12.13;;;8.85;;
9773;SDS011;4926;42.670;23.316;2023-12-14T03:21:17;13.30;;;8.45;;
9773;SDS011;4926;42.670;23.316;2023-12-14T03:23:47;11.70;;;8.75;;
9773;SDS011;4926;42.670;23.316;2023-12-14T03:26:13;11.30;;;8.25;;
9773;SDS011;4926;42.670;23.316;2023-12-14T03:28:40;13.30;;;8.60;;
9773;SDS011;4926;42.670;23.316;2023-12-14T03:31:10;12.18;;;8.30;;
9773;SDS011;4926;42.670;23.316;2023-12-14T03:33:39;10.50;;;8.52;;
9773;SDS011;4926;42.670;23.316;2023-12-14T03:36:08;10.75;;;7.80;;
9773;SDS011;4926;42.670;23.316;2023-12-14T03:38:35;11.40;;;8.27;;
9773;SDS011;4926;42.670;23.316;2023-12-14T03:41:02;10.75;;;7.60;;
9773;SDS011;4926;42.670;23.316;2023-12-14T03:43:29;10.10;;;7.40;;
9773;SDS011;4926;42.670;23.316;2023-12-14T03:45:56;9.20;;;6.97;;
9773;SDS011;4926;42.670;23.316;2023-12-14T03:48:23;9.95;;;7.28;;
9773;SDS011;4926;42.670;23.316;2023-12-14T03:50:51;10.63;;;7.78;;
9773;SDS011;4926;42.670;23.316;2023-12-14T03:53:18;11.27;;;8.20;;
9773;SDS011;4926;42.670;23.316;2023-12-14T03:55:45;10.23;;;7.68;;
9773;SDS011;4926;42.670;23.316;2023-12-14T03:58:12;10.93;;;7.57;;
9773;SDS011;4926;42.670;23.316;2023-12-14T04:00:39;12.02;;;7.90;;
9773;SDS011;4926;42.670;23.316;2023-12-14T04:03:06;11.82;;;7.60;;
9773;SDS011;4926;42.670;23.316;2023-12-14T04:05:33;12.73;;;7.75;;
9773;SDS011;4926;42.670;23.316;2023-12-14T04:08:05;15.45;;;7.78;;
9773;SDS011;4926;42.670;23.316;2023-12-14T04:10:32;9.95;;;7.25;;
9773;SDS011;4926;42.670;23.316;2023-12-14T04:12:59;11.25;;;7.22;;
9773;SDS011;4926;42.670;23.316;2023-12-14T04:15:26;10.73;;;7.40;;
9773;SDS011;4926;42.670;23.316;2023-12-14T04:17:53;10.98;;;7.57;;
9773;SDS011;4926;42.670;23.316;2023-12-14T04:20:20;11.88;;;7.53;;
9773;SDS011;4926;42.670;23.316;2023-12-14T04:22:47;9.80;;;7.38;;
9773;SDS011;4926;42.670;23.316;2023-12-14T04:25:16;11.80;;;8.88;;
9773;SDS011;4926;42.670;23.316;2023-12-14T04:27:45;11.15;;;8.57;;
9773;SDS011;4926;42.670;23.316;2023-12-14T04:30:12;13.85;;;9.57;;
9773;SDS011;4926;42.670;23.316;2023-12-14T04:32:42;11.23;;;8.10;;
9773;SDS011;4926;42.670;23.316;2023-12-14T04:35:10;11.10;;;8.23;;
9773;SDS011;4926;42.670;23.316;2023-12-14T04:37:37;10.52;;;8.00;;
9773;SDS011;4926;42.670;23.316;2023-12-14T04:40:04;10.70;;;8.02;;
9773;SDS011;4926;42.670;23.316;2023-12-14T04:42:34;11.68;;;8.20;;
9773;SDS011;4926;42.670;23.316;2023-12-14T04:45:00;13.30;;;7.88;;
9773;SDS011;4926;42.670;23.316;2023-12-14T04:47:27;10.32;;;8.05;;
9773;SDS011;4926;42.670;23.316;2023-12-14T04:49:54;11.38;;;7.65;;
9773;SDS011;4926;42.670;23.316;2023-12-14T04:52:21;11.30;;;8.23;;
9773;SDS011;4926;42.670;23.316;2023-12-14T04:54:49;12.77;;;8.60;;
9773;SDS011;4926;42.670;23.316;2023-12-14T04:57:16;10.32;;;7.50;;
9773;SDS011;4926;42.670;23.316;2023-12-14T04:59:46;11.57;;;7.57;;
9773;SDS011;4926;42.670;23.316;2023-12-14T05:02:13;9.95;;;7.55;;
9773;SDS011;4926;42.670;23.316;2023-12-14T05:04:40;12.70;;;8.05;;
9773;SDS011;4926;42.670;23.316;2023-12-14T05:07:07;11.45;;;7.65;;
9773;SDS011;4926;42.670;23.316;2023-12-14T05:09:34;11.40;;;7.57;;
9773;SDS011;4926;42.670;23.316;2023-12-14T05:12:01;12.50;;;7.80;;
9773;SDS011;4926;42.670;23.316;2023-12-14T05:14:31;13.38;;;7.75;;
9773;SDS011;4926;42.670;23.316;2023-12-14T05:17:00;11.35;;;8.38;;
9773;SDS011;4926;42.670;23.316;2023-12-14T05:19:28;15.82;;;7.63;;
9773;SDS011;4926;42.670;23.316;2023-12-14T05:21:55;12.23;;;7.63;;
9773;SDS011;4926;42.670;23.316;2023-12-14T05:24:25;11.35;;;7.97;;
9773;SDS011;4926;42.670;23.316;2023-12-14T05:26:52;10.23;;;7.60;;
9773;SDS011;4926;42.670;23.316;2023-12-14T05:29:19;13.18;;;9.32;;
9773;SDS011;4926;42.670;23.316;2023-12-14T05:31:47;12.23;;;9.10;;
9773;SDS011;4926;42.670;23.316;2023-12-14T05:34:15;12.07;;;8.32;;
9773;SDS011;4926;42.670;23.316;2023-12-14T05:36:45;13.90;;;8.48;;
9773;SDS011;4926;42.670;23.316;2023-12-14T05:39:12;12.05;;;7.97;;
9773;SDS011;4926;42.670;23.316;2023-12-14T05:41:39;12.48;;;7.75;;
9773;SDS011;4926;42.670;23.316;2023-12-14T05:44:07;12.20;;;8.20;;
9773;SDS011;4926;42.670;23.316;2023-12-14T05:46:34;12.75;;;9.07;;
9773;SDS011;4926;42.670;23.316;2023-12-14T05:49:04;16.05;;;7.82;;
9773;SDS011;4926;42.670;23.316;2023-12-14T05:51:34;12.80;;;8.45;;
9773;SDS011;4926;42.670;23.316;2023-12-14T05:54:03;11.45;;;8.55;;
9773;SDS011;4926;42.670;23.316;2023-12-14T05:56:30;11.23;;;8.07;;
9773;SDS011;4926;42.670;23.316;2023-12-14T05:58:56;14.07;;;8.88;;
9773;SDS011;4926;42.670;23.316;2023-12-14T06:01:26;14.95;;;9.95;;
9773;SDS011;4926;42.670;23.316;2023-12-14T06:03:55;13.35;;;8.88;;
9773;SDS011;4926;42.670;23.316;2023-12-14T06:06:24;14.75;;;8.40;;
9773;SDS011;4926;42.670;23.316;2023-12-14T06:08:52;12.93;;;8.30;;
9773;SDS011;4926;42.670;23.316;2023-12-14T06:11:19;10.80;;;8.02;;
9773;SDS011;4926;42.670;23.316;2023-12-14T06:13:51;11.25;;;8.00;;
9773;SDS011;4926;42.670;23.316;2023-12-14T06:16:18;10.68;;;7.60;;
9773;SDS011;4926;42.670;23.316;2023-12-14T06:18:47;15.20;;;8.45;;
9773;SDS011;4926;42.670;23.316;2023-12-14T06:21:14;10.75;;;8.02;;
9773;SDS011;4926;42.670;23.316;2023-12-14T06:23:43;11.13;;;8.57;;
9773;SDS011;4926;42.670;23.316;2023-12-14T06:26:11;16.20;;;8.80;;
9773;SDS011;4926;42.670;23.316;2023-12-14T06:28:38;12.15;;;8.07;;
9773;SDS011;4926;42.670;23.316;2023-12-14T06:31:05;10.93;;;7.88;;
9773;SDS011;4926;42.670;23.316;2023-12-14T06:33:33;18.00;;;12.35;;
9773;SDS011;4926;42.670;23.316;2023-12-14T06:36:03;12.48;;;9.07;;
9773;SDS011;4926;42.670;23.316;2023-12-14T06:38:31;16.52;;;8.57;;
9773;SDS011;4926;42.670;23.316;2023-12-14T06:40:58;15.55;;;8.35;;
9773;SDS011;4926;42.670;23.316;2023-12-14T06:43:26;17.67;;;11.00;;
9773;SDS011;4926;42.670;23.316;2023-12-14T06:45:56;25.30;;;14.20;;
9773;SDS011;4926;42.670;23.316;2023-12-14T06:48:23;13.13;;;9.25;;
9773;SDS011;4926;42.670;23.316;2023-12-14T06:50:55;17.48;;;9.63;;
9773;SDS011;4926;42.670;23.316;2023-12-14T06:53:22;21.38;;;17.17;;
9773;SDS011;4926;42.670;23.316;2023-12-14T06:55:49;18.20;;;10.38;;
9773;SDS011;4926;42.670;23.316;2023-12-14T06:58:17;13.00;;;9.60;;
9773;SDS011;4926;42.670;23.316;2023-12-14T07:00:45;30.55;;;11.65;;
9773;SDS011;4926;42.670;23.316;2023-12-14T07:03:15;12.98;;;9.93;;
9773;SDS011;4926;42.670;23.316;2023-12-14T07:05:42;15.27;;;10.00;;
9773;SDS011;4926;42.670;23.316;2023-12-14T07:08:09;20.02;;;10.00;;
9773;SDS011;4926;42.670;23.316;2023-12-14T07:10:36;16.98;;;10.35;;
9773;SDS011;4926;42.670;23.316;2023-12-14T07:13:03;15.55;;;9.88;;
9773;SDS011;4926;42.670;23.316;2023-12-14T07:15:30;19.88;;;10.43;;
9773;SDS011;4926;42.670;23.316;2023-12-14T07:17:59;14.15;;;10.13;;
9773;SDS011;4926;42.670;23.316;2023-12-14T07:20:27;17.63;;;10.00;;
9773;SDS011;4926;42.670;23.316;2023-12-14T07:22:54;13.02;;;9.65;;
9773;SDS011;4926;42.670;23.316;2023-12-14T07:25:23;18.05;;;10.80;;
9773;SDS011;4926;42.670;23.316;2023-12-14T07:27:50;18.80;;;11.23;;
9773;SDS011;4926;42.670;23.316;2023-12-14T07:30:17;15.25;;;10.15;;
9773;SDS011;4926;42.670;23.316;2023-12-14T07:32:44;17.60;;;9.30;;
9773;SDS011;4926;42.670;23.316;2023-12-14T07:35:13;19.50;;;13.88;;
9773;SDS011;4926;42.670;23.316;2023-12-14T07:37:40;20.30;;;11.73;;
9773;SDS011;4926;42.670;23.316;2023-12-14T07:40:07;21.90;;;12.07;;
9773;SDS011;4926;42.670;23.316;2023-12-14T07:42:35;16.30;;;10.93;;
9773;SDS011;4926;42.670;23.316;2023-12-14T07:45:05;22.00;;;12.80;;
9773;SDS011;4926;42.670;23.316;2023-12-14T07:47:34;26.58;;;12.40;;
9773;SDS011;4926;42.670;23.316;2023-12-14T07:50:02;18.60;;;10.90;;
9773;SDS011;4926;42.670;23.316;2023-12-14T07:52:30;17.38;;;11.57;;
9773;SDS011;4926;42.670;23.316;2023-12-14T07:54:57;17.98;;;11.40;;
9773;SDS011;4926;42.670;23.316;2023-12-14T07:57:24;16.00;;;9.38;;
9773;SDS011;4926;42.670;23.316;2023-12-14T07:59:51;16.50;;;8.50;;
9773;SDS011;4926;42.670;23.316;2023-12-14T08:02:19;15.32;;;9.98;;
9773;SDS011;4926;42.670;23.316;2023-12-14T08:04:47;23.45;;;11.32;;
9773;SDS011;4926;42.670;23.316;2023-12-14T08:07:18;19.92;;;9.18;;
9773;SDS011;4926;42.670;23.316;2023-12-14T08:09:46;16.13;;;9.52;;
9773;SDS011;4926;42.670;23.316;2023-12-14T08:12:13;17.85;;;10.43;;
9773;SDS011;4926;42.670;23.316;2023-12-14T08:14:43;27.65;;;15.38;;
9773;SDS011;4926;42.670;23.316;2023-12-14T08:17:10;12.25;;;8.57;;
9773;SDS011;4926;42.670;23.316;2023-12-14T08:19:37;15.63;;;8.80;;
9773;SDS011;4926;42.670;23.316;2023-12-14T08:22:03;29.52;;;17.88;;
9773;SDS011;4926;42.670;23.316;2023-12-14T08:24:31;20.17;;;12.25;;
9773;SDS011;4926;42.670;23.316;2023-12-14T08:27:01;13.52;;;8.75;;
9773;SDS011;4926;42.670;23.316;2023-12-14T08:29:28;16.75;;;12.32;;
9773;SDS011;4926;42.670;23.316;2023-12-14T08:31:55;16.92;;;9.80;;
9773;SDS011;4926;42.670;23.316;2023-12-14T08:34:24;10.48;;;7.60;;
9773;SDS011;4926;42.670;23.316;2023-12-14T08:36:51;11.63;;;8.05;;
9773;SDS011;4926;42.670;23.316;2023-12-14T08:39:18;12.25;;;7.80;;
9773;SDS011;4926;42.670;23.316;2023-12-14T08:41:45;14.25;;;7.25;;
9773;SDS011;4926;42.670;23.316;2023-12-14T08:44:15;12.35;;;8.20;;
9773;SDS011;4926;42.670;23.316;2023-12-14T08:46:45;10.65;;;7.53;;
9773;SDS011;4926;42.670;23.316;2023-12-14T08:49:14;10.23;;;7.10;;
9773;SDS011;4926;42.670;23.316;2023-12-14T08:51:42;12.00;;;7.60;;
9773;SDS011;4926;42.670;23.316;2023-12-14T08:54:09;13.27;;;9.07;;
9773;SDS011;4926;42.670;23.316;2023-12-14T08:56:41;25.20;;;13.38;;
9773;SDS011;4926;42.670;23.316;2023-12-14T08:59:10;11.63;;;7.03;;
9773;SDS011;4926;42.670;23.316;2023-12-14T09:01:39;15.50;;;8.18;;
9773;SDS011;4926;42.670;23.316;2023-12-14T09:04:07;17.27;;;7.82;;
9773;SDS011;4926;42.670;23.316;2023-12-14T09:06:34;14.63;;;9.45;;
9773;SDS011;4926;42.670;23.316;2023-12-14T09:09:01;27.50;;;20.20;;
9773;SDS011;4926;42.670;23.316;2023-12-14T09:11:28;13.30;;;8.40;;
9773;SDS011;4926;42.670;23.316;2023-12-14T09:14:00;10.60;;;7.40;;
9773;SDS011;4926;42.670;23.316;2023-12-14T09:16:27;10.43;;;7.70;;
9773;SDS011;4926;42.670;23.316;2023-12-14T09:18:55;13.32;;;7.50;;
9773;SDS011;4926;42.670;23.316;2023-12-14T09:21:25;15.68;;;8.32;;
9773;SDS011;4926;42.670;23.316;2023-12-14T09:23:52;15.40;;;9.63;;
9773;SDS011;4926;42.670;23.316;2023-12-14T09:26:19;13.05;;;9.70;;
9773;SDS011;4926;42.670;23.316;2023-12-14T09:28:46;20.85;;;9.07;;
9773;SDS011;4926;42.670;23.316;2023-12-14T09:31:19;15.48;;;9.63;;
9773;SDS011;4926;42.670;23.316;2023-12-14T09:33:47;17.33;;;9.45;;
9773;SDS011;4926;42.670;23.316;2023-12-14T09:36:15;18.02;;;9.25;;
9773;SDS011;4926;42.670;23.316;2023-12-14T09:38:47;14.60;;;8.20;;
9773;SDS011;4926;42.670;23.316;2023-12-14T09:41:14;11.55;;;7.93;;
9773;SDS011;4926;42.670;23.316;2023-12-14T09:43:46;16.88;;;7.85;;
9773;SDS011;4926;42.670;23.316;2023-12-14T09:46:13;14.02;;;10.75;;
9773;SDS011;4926;42.670;23.316;2023-12-14T09:48:43;14.93;;;10.75;;
9773;SDS011;4926;42.670;23.316;2023-12-14T09:51:13;18.35;;;9.05;;
9773;SDS011;4926;42.670;23.316;2023-12-14T09:53:42;32.70;;;17.77;;
9773;SDS011;4926;42.670;23.316;2023-12-14T09:56:09;21.98;;;13.82;;
9773;SDS011;4926;42.670;23.316;2023-12-14T09:58:36;18.00;;;8.30;;
9773;SDS011;4926;42.670;23.316;2023-12-14T10:01:11;13.40;;;8.27;;
9773;SDS011;4926;42.670;23.316;2023-12-14T10:03:48;12.70;;;6.90;;
9773;SDS011;4926;42.670;23.316;2023-12-14T10:06:17;16.52;;;7.63;;
9773;SDS011;4926;42.670;23.316;2023-12-14T10:08:53;12.85;;;8.88;;
9773;SDS011;4926;42.670;23.316;2023-12-14T10:11:23;14.95;;;7.55;;
9773;SDS011;4926;42.670;23.316;2023-12-14T10:13:52;14.55;;;7.10;;
9773;SDS011;4926;42.670;23.316;2023-12-14T10:16:28;17.48;;;8.00;;
9773;SDS011;4926;42.670;23.316;2023-12-14T10:18:59;13.95;;;8.07;;
9773;SDS011;4926;42.670;23.316;2023-12-14T10:21:28;15.93;;;7.90;;
9773;SDS011;4926;42.670;23.316;2023-12-14T10:23:55;17.08;;;7.40;;
9773;SDS011;4926;42.670;23.316;2023-12-14T10:26:23;16.45;;;7.75;;
9773;SDS011;4926;42.670;23.316;2023-12-14T10:28:53;12.35;;;7.68;;
9773;SDS011;4926;42.670;23.316;2023-12-14T10:31:20;19.88;;;8.20;;
9773;SDS011;4926;42.670;23.316;2023-12-14T10:33:52;14.25;;;9.60;;
9773;SDS011;4926;42.670;23.316;2023-12-14T10:36:25;14.48;;;8.40;;
9773;SDS011;4926;42.670;23.316;2023-12-14T10:38:57;12.90;;;7.95;;
9773;SDS011;4926;42.670;23.316;2023-12-14T10:41:25;10.93;;;7.45;;
9773;SDS011;4926;42.670;23.316;2023-12-14T10:43:55;13.60;;;8.43;;
9773;SDS011;4926;42.670;23.316;2023-12-14T10:46:23;12.55;;;8.63;;
9773;SDS011;4926;42.670;23.316;2023-12-14T10:48:50;14.35;;;9.20;;
9773;SDS011;4926;42.670;23.316;2023-12-14T10:51:20;13.63;;;9.43;;
9773;SDS011;4926;42.670;23.316;2023-12-14T10:53:49;18.50;;;10.93;;
9773;SDS011;4926;42.670;23.316;2023-12-14T10:56:17;10.82;;;8.18;;
9773;SDS011;4926;42.670;23.316;2023-12-14T10:58:45;11.05;;;7.95;;
9773;SDS011;4926;42.670;23.316;2023-12-14T11:01:13;10.18;;;7.20;;
9773;SDS011;4926;42.670;23.316;2023-12-14T11:03:43;9.90;;;7.32;;
9773;SDS011;4926;42.670;23.316;2023-12-14T11:06:27;14.38;;;8.35;;
9773;SDS011;4926;42.670;23.316;2023-12-14T11:08:57;10.80;;;7.38;;
9773;SDS011;4926;42.670;23.316;2023-12-14T11:11:28;8.18;;;6.53;;
9773;SDS011;4926;42.670;23.316;2023-12-14T11:13:56;9.35;;;5.40;;
9773;SDS011;4926;42.670;23.316;2023-12-14T11:16:23;12.23;;;5.00;;
9773;SDS011;4926;42.670;23.316;2023-12-14T11:22:12;6.38;;;4.03;;
9773;SDS011;4926;42.670;23.316;2023-12-14T11:24:54;4.78;;;4.07;;
9773;SDS011;4926;42.670;23.316;2023-12-14T11:27:28;6.57;;;3.67;;
9773;SDS011;4926;42.670;23.316;2023-12-14T11:29:56;9.77;;;3.70;;
9773;SDS011;4926;42.670;23.316;2023-12-14T11:32:26;8.18;;;3.45;;
9773;SDS011;4926;42.670;23.316;2023-12-14T11:34:55;5.75;;;3.00;;
9773;SDS011;4926;42.670;23.316;2023-12-14T11:37:23;6.05;;;3.40;;
9773;SDS011;4926;42.670;23.316;2023-12-14T11:39:50;4.95;;;3.35;;
9773;SDS011;4926;42.670;23.316;2023-12-14T11:42:21;7.40;;;3.08;;
9773;SDS011;4926;42.670;23.316;2023-12-14T11:44:48;2.72;;;2.03;;
9773;SDS011;4926;42.670;23.316;2023-12-14T11:47:15;4.35;;;2.40;;
9773;SDS011;4926;42.670;23.316;2023-12-14T11:49:42;3.38;;;2.30;;
9773;SDS011;4926;42.670;23.316;2023-12-14T11:52:11;4.32;;;2.30;;
9773;SDS011;4926;42.670;23.316;2023-12-14T11:54:37;1.63;;;1.42;;
9773;SDS011;4926;42.670;23.316;2023-12-14T11:57:04;3.67;;;2.20;;
9773;SDS011;4926;42.670;23.316;2023-12-14T11:59:37;4.22;;;2.42;;
9773;SDS011;4926;42.670;23.316;2023-12-14T12:02:04;2.60;;;1.80;;
9773;SDS011;4926;42.670;23.316;2023-12-14T12:04:31;3.00;;;1.70;;
9773;SDS011;4926;42.670;23.316;2023-12-14T12:06:59;2.50;;;1.67;;
9773;SDS011;4926;42.670;23.316;2023-12-14T12:09:34;5.10;;;1.40;;
9773;SDS011;4926;42.670;23.316;2023-12-14T12:12:01;3.72;;;1.40;;
9773;SDS011;4926;42.670;23.316;2023-12-14T12:14:32;6.07;;;1.63;;
9773;SDS011;4926;42.670;23.316;2023-12-14T12:17:01;4.78;;;1.50;;
9773;SDS011;4926;42.670;23.316;2023-12-14T12:19:30;1.63;;;1.25;;
9773;SDS011;4926;42.670;23.316;2023-12-14T12:21:58;10.98;;;1.30;;
9773;SDS011;4926;42.670;23.316;2023-12-14T12:24:25;1.55;;;1.25;;
9773;SDS011;4926;42.670;23.316;2023-12-14T12:26:52;3.42;;;1.45;;
9773;SDS011;4926;42.670;23.316;2023-12-14T12:29:19;6.18;;;1.40;;
9773;SDS011;4926;42.670;23.316;2023-12-14T12:31:46;2.97;;;1.42;;
9773;SDS011;4926;42.670;23.316;2023-12-14T12:34:14;1.98;;;1.30;;
9773;SDS011;4926;42.670;23.316;2023-12-14T12:36:42;2.42;;;1.08;;
9773;SDS011;4926;42.670;23.316;2023-12-14T12:39:09;2.17;;;1.20;;
9773;SDS011;4926;42.670;23.316;2023-12-14T12:41:36;2.78;;;1.35;;
9773;SDS011;4926;42.670;23.316;2023-12-14T12:44:03;2.17;;;1.30;;
9773;SDS011;4926;42.670;23.316;2023-12-14T12:46:33;1.55;;;1.30;;
9773;SDS011;4926;42.670;23.316;2023-12-14T12:49:01;1.63;;;1.20;;
9773;SDS011;4926;42.670;23.316;2023-12-14T12:51:30;1.45;;;0.90;;
9773;SDS011;4926;42.670;23.316;2023-12-14T12:53:58;1.48;;;1.30;;
9773;SDS011;4926;42.670;23.316;2023-12-14T12:56:28;1.02;;;0.98;;
9773;SDS011;4926;42.670;23.316;2023-12-14T12:58:55;1.63;;;1.33;;
9773;SDS011;4926;42.670;23.316;2023-12-14T13:01:22;1.60;;;1.33;;
9773;SDS011;4926;42.670;23.316;2023-12-14T13:03:52;3.08;;;1.52;;
9773;SDS011;4926;42.670;23.316;2023-12-14T13:06:20;4.43;;;2.78;;
9773;SDS011;4926;42.670;23.316;2023-12-14T13:08:49;2.70;;;1.40;;
9773;SDS011;4926;42.670;23.316;2023-12-14T13:11:19;3.65;;;1.60;;
9773;SDS011;4926;42.670;23.316;2023-12-14T13:13:48;6.13;;;1.52;;
9773;SDS011;4926;42.670;23.316;2023-12-14T13:16:15;2.05;;;1.23;;
9773;SDS011;4926;42.670;23.316;2023-12-14T13:18:42;4.95;;;1.50;;
9773;SDS011;4926;42.670;23.316;2023-12-14T13:21:11;2.45;;;1.30;;
9773;SDS011;4926;42.670;23.316;2023-12-14T13:23:37;1.88;;;1.48;;
9773;SDS011;4926;42.670;23.316;2023-12-14T13:26:06;3.92;;;1.50;;
9773;SDS011;4926;42.670;23.316;2023-12-14T13:28:33;1.92;;;1.30;;
9773;SDS011;4926;42.670;23.316;2023-12-14T13:31:00;1.33;;;1.15;;
9773;SDS011;4926;42.670;23.316;2023-12-14T13:33:27;2.65;;;1.38;;
9773;SDS011;4926;42.670;23.316;2023-12-14T13:35:54;1.90;;;1.17;;
9773;SDS011;4926;42.670;23.316;2023-12-14T13:38:21;1.25;;;1.10;;
9773;SDS011;4926;42.670;23.316;2023-12-14T13:40:47;2.13;;;1.60;;
9773;SDS011;4926;42.670;23.316;2023-12-14T13:43:16;1.45;;;1.33;;
9773;SDS011;4926;42.670;23.316;2023-12-14T13:45:43;1.60;;;1.30;;
9773;SDS011;4926;42.670;23.316;2023-12-14T13:48:10;3.60;;;1.77;;
9773;SDS011;4926;42.670;23.316;2023-12-14T13:50:38;1.67;;;1.10;;
9773;SDS011;4926;42.670;23.316;2023-12-14T13:53:05;2.13;;;1.45;;
9773;SDS011;4926;42.670;23.316;2023-12-14T13:55:34;3.10;;;1.25;;
9773;SDS011;4926;42.670;23.316;2023-12-14T13:58:01;1.90;;;1.27;;
9773;SDS011;4926;42.670;23.316;2023-12-14T14:00:30;1.65;;;1.30;;
9773;SDS011;4926;42.670;23.316;2023-12-14T14:02:58;2.85;;;1.25;;
9773;SDS011;4926;42.670;23.316;2023-12-14T14:05:24;2.10;;;1.25;;
9773;SDS011;4926;42.670;23.316;2023-12-14T14:07:51;1.48;;;1.23;;
9773;SDS011;4926;42.670;23.316;2023-12-14T14:10:18;2.30;;;1.65;;
9773;SDS011;4926;42.670;23.316;2023-12-14T14:12:45;2.75;;;1.38;;
9773;SDS011;4926;42.670;23.316;2023-12-14T14:15:12;2.45;;;1.80;;
9773;SDS011;4926;42.670;23.316;2023-12-14T14:17:41;6.40;;;2.00;;
9773;SDS011;4926;42.670;23.316;2023-12-14T14:20:08;2.97;;;1.90;;
9773;SDS011;4926;42.670;23.316;2023-12-14T14:22:36;1.92;;;1.45;;
9773;SDS011;4926;42.670;23.316;2023-12-14T14:25:03;2.45;;;1.30;;
9773;SDS011;4926;42.670;23.316;2023-12-14T14:27:31;1.50;;;1.20;;
9773;SDS011;4926;42.670;23.316;2023-12-14T14:30:01;6.75;;;2.17;;
9773;SDS011;4926;42.670;23.316;2023-12-14T14:32:29;3.17;;;1.70;;
9773;SDS011;4926;42.670;23.316;2023-12-14T14:34:58;1.80;;;1.33;;
9773;SDS011;4926;42.670;23.316;2023-12-14T14:37:34;2.30;;;1.65;;
9773;SDS011;4926;42.670;23.316;2023-12-14T14:40:01;2.22;;;1.10;;
9773;SDS011;4926;42.670;23.316;2023-12-14T14:42:29;4.38;;;1.50;;
9773;SDS011;4926;42.670;23.316;2023-12-14T14:44:57;3.13;;;1.20;;
9773;SDS011;4926;42.670;23.316;2023-12-14T14:47:24;3.75;;;1.52;;
9773;SDS011;4926;42.670;23.316;2023-12-14T14:49:51;2.70;;;1.45;;
9773;SDS011;4926;42.670;23.316;2023-12-14T14:52:23;1.52;;;1.42;;
9773;SDS011;4926;42.670;23.316;2023-12-14T14:54:55;1.90;;;1.45;;
9773;SDS011;4926;42.670;23.316;2023-12-14T14:57:22;3.97;;;1.80;;